Time;durP1;ratioP1;P1;durP2;ratioP2;P2;SDS_P1;SDS_P2;PMS_P1;PMS_P2;Temp;Humidity;BMP_temperature;BMP_pressure;BME280_temperature;BME280_humidity;BME280_pressure;Samples;Min_cycle;Max_cycle;Signal;HPM_P1;HPM_P2
2022/03/18 00:00:17;;;;;;;48.60;35.00;;;7.90;99.90;;;;;;5029936;28;20214;-38
2022/03/18 00:02:43;;;;;;;51.23;34.90;;;7.90;99.90;;;;;;5030190;28;20213;-38
2022/03/18 00:05:09;;;;;;;47.00;34.07;;;7.90;99.90;;;;;;5030100;28;20191;-38
2022/03/18 00:07:35;;;;;;;47.73;34.27;;;7.90;99.90;;;;;;5030132;28;20182;-38
2022/03/18 00:10:01;;;;;;;45.00;33.10;;;8.00;99.90;;;;;;5029587;28;20214;-38
2022/03/18 00:12:27;;;;;;;45.47;32.63;;;8.00;99.90;;;;;;5013541;28;20201;-38
2022/03/18 00:14:54;;;;;;;47.07;32.83;;;8.00;99.90;;;;;;5029984;28;20207;-38
2022/03/18 00:17:19;;;;;;;42.80;31.13;;;7.90;99.90;;;;;;5013281;28;20183;-38
2022/03/18 00:19:46;;;;;;;45.33;33.77;;;7.90;99.90;;;;;;5029251;28;20207;-38
2022/03/18 00:22:13;;;;;;;44.77;32.37;;;7.90;99.90;;;;;;5013085;28;20199;-37
2022/03/18 00:24:39;;;;;;;45.40;33.03;;;7.90;99.90;;;;;;5012684;28;20182;-38
2022/03/18 00:27:05;;;;;;;45.70;33.23;;;8.00;99.90;;;;;;5029404;28;20570;-38
2022/03/18 00:29:32;;;;;;;46.50;32.70;;;7.90;99.90;;;;;;5012677;28;20226;-38
2022/03/18 00:31:58;;;;;;;46.50;33.97;;;7.90;99.90;;;;;;4996863;28;20191;-40
2022/03/18 00:34:24;;;;;;;47.03;34.53;;;7.90;99.90;;;;;;5029460;28;20198;-38
2022/03/18 00:36:49;;;;;;;45.53;33.20;;;7.80;99.90;;;;;;5029367;28;20190;-38
2022/03/18 00:39:16;;;;;;;46.23;32.70;;;7.70;99.90;;;;;;5029032;28;20186;-38
2022/03/18 00:41:42;;;;;;;48.33;33.27;;;7.60;99.90;;;;;;5013033;28;20178;-38
2022/03/18 00:44:08;;;;;;;49.47;33.80;;;7.60;99.90;;;;;;5029490;28;20206;-38
2022/03/18 00:46:34;;;;;;;45.10;31.30;;;7.60;99.90;;;;;;5029329;28;20561;-38
2022/03/18 00:54:34;;;;;;;42.50;30.67;;;7.50;99.90;;;;;;5012676;28;20256;-39
2022/03/18 00:57:00;;;;;;;45.20;30.87;;;7.50;99.90;;;;;;5029381;28;20179;-38
2022/03/18 00:59:28;;;;;;;42.40;29.47;;;7.50;99.90;;;;;;5027773;28;20183;-38
2022/03/18 01:01:55;;;;;;;42.67;29.53;;;7.50;99.90;;;;;;5029614;28;20182;-37
2022/03/18 01:04:21;;;;;;;38.77;28.17;;;7.50;99.90;;;;;;5029000;28;20221;-36
2022/03/18 01:06:49;;;;;;;42.23;28.03;;;7.40;99.90;;;;;;5028829;28;20198;-35
2022/03/18 01:09:16;;;;;;;39.80;28.50;;;7.40;99.90;;;;;;5028669;28;20229;-36
2022/03/18 01:11:42;;;;;;;41.13;29.37;;;7.40;99.90;;;;;;5029002;28;20197;-36
2022/03/18 01:14:08;;;;;;;42.37;29.30;;;7.40;99.90;;;;;;5028792;28;20218;-35
2022/03/18 01:16:34;;;;;;;39.20;28.23;;;7.30;99.90;;;;;;5013599;28;20213;-35
2022/03/18 01:19:00;;;;;;;40.50;27.53;;;7.30;99.90;;;;;;5012078;28;20181;-35
2022/03/18 01:21:26;;;;;;;41.23;28.20;;;7.30;99.90;;;;;;4995876;28;20281;-36
2022/03/18 01:23:52;;;;;;;43.80;29.63;;;7.30;99.90;;;;;;4995899;28;20284;-35
2022/03/18 01:26:18;;;;;;;45.13;30.43;;;7.30;99.90;;;;;;4995828;28;20182;-35
2022/03/18 01:28:44;;;;;;;44.70;30.17;;;7.30;99.90;;;;;;5028356;28;20190;-35
2022/03/18 01:31:10;;;;;;;43.33;30.07;;;7.30;99.90;;;;;;5028143;28;20240;-35
2022/03/18 01:33:37;;;;;;;44.60;31.17;;;7.30;99.90;;;;;;5028222;28;20186;-35
2022/03/18 01:36:05;;;;;;;47.20;32.17;;;7.30;99.90;;;;;;5028485;28;20195;-35
2022/03/18 01:38:32;;;;;;;46.03;30.53;;;7.20;99.90;;;;;;5028446;28;20651;-35
2022/03/18 01:40:58;;;;;;;46.40;31.37;;;7.20;99.90;;;;;;4995600;28;20266;-35
2022/03/18 01:43:24;;;;;;;46.80;32.70;;;7.20;99.90;;;;;;5029580;28;20211;-35
2022/03/18 01:45:51;;;;;;;46.63;30.87;;;7.20;99.90;;;;;;5014475;28;20209;-37
2022/03/18 01:48:20;;;;;;;46.10;31.37;;;7.20;99.90;;;;;;5031426;28;20186;-35
2022/03/18 01:50:46;;;;;;;47.57;32.20;;;7.20;99.90;;;;;;4995712;28;20218;-36
2022/03/18 01:53:12;;;;;;;49.00;32.23;;;7.20;99.90;;;;;;5028281;28;20611;-36
2022/03/18 01:55:38;;;;;;;50.20;31.30;;;7.20;99.90;;;;;;5028587;28;20177;-37
2022/03/18 01:58:04;;;;;;;47.87;30.80;;;7.10;99.90;;;;;;5027921;28;20182;-36
2022/03/18 02:00:31;;;;;;;45.37;30.27;;;7.20;99.90;;;;;;5027439;28;20251;-36
2022/03/18 02:02:57;;;;;;;46.63;31.37;;;7.20;99.90;;;;;;5027751;28;20232;-37
2022/03/18 02:05:24;;;;;;;46.60;31.13;;;7.20;99.90;;;;;;5027884;28;20193;-36
2022/03/18 02:07:50;;;;;;;45.83;31.00;;;7.20;99.90;;;;;;5027792;28;20190;-37
2022/03/18 02:10:16;;;;;;;44.63;30.20;;;7.20;99.90;;;;;;5027434;28;20209;-37
2022/03/18 02:12:42;;;;;;;46.27;30.83;;;7.20;99.90;;;;;;5027591;28;20269;-36
2022/03/18 02:15:09;;;;;;;46.60;30.37;;;7.20;99.90;;;;;;5027636;28;20268;-36
2022/03/18 02:17:37;;;;;;;48.70;31.77;;;7.20;99.90;;;;;;5012540;28;20183;-38
2022/03/18 02:20:04;;;;;;;46.43;29.90;;;7.20;99.90;;;;;;5027454;28;20213;-36
2022/03/18 02:22:42;;;;;;;46.63;29.80;;;7.20;99.90;;;;;;5027638;28;20187;-36
2022/03/18 02:25:12;;;;;;;46.57;30.20;;;7.20;99.90;;;;;;5027721;28;20186;-38
2022/03/18 02:27:52;;;;;;;43.50;29.27;;;7.20;99.90;;;;;;5027514;28;20172;-36
2022/03/18 02:30:18;;;;;;;46.10;28.80;;;7.20;99.90;;;;;;5026919;28;20336;-36
2022/03/18 02:32:44;;;;;;;45.37;30.30;;;7.20;99.90;;;;;;5010901;28;20265;-35
2022/03/18 02:35:09;;;;;;;43.20;29.67;;;7.20;99.90;;;;;;5010872;28;20190;-36
2022/03/18 02:37:35;;;;;;;43.73;29.43;;;7.20;99.90;;;;;;5027244;28;20174;-35
2022/03/18 02:40:02;;;;;;;45.17;28.97;;;7.20;99.90;;;;;;5026902;28;20206;-36
2022/03/18 02:42:27;;;;;;;40.90;28.60;;;7.20;99.90;;;;;;5027393;28;20217;-36
2022/03/18 02:44:54;;;;;;;41.53;28.20;;;7.20;99.90;;;;;;5027127;28;20198;-35
2022/03/18 02:47:20;;;;;;;42.87;28.33;;;7.10;99.90;;;;;;5027083;28;20188;-36
2022/03/18 02:49:46;;;;;;;41.83;29.10;;;7.10;99.90;;;;;;5026564;28;20218;-36
2022/03/18 02:52:14;;;;;;;44.73;27.93;;;7.10;99.90;;;;;;5026900;28;20190;-35
2022/03/18 02:54:41;;;;;;;41.70;28.50;;;7.10;99.90;;;;;;5010391;28;20553;-36
2022/03/18 02:57:07;;;;;;;40.60;27.60;;;7.20;99.90;;;;;;5010522;28;20270;-35
2022/03/18 02:59:33;;;;;;;42.80;28.07;;;7.20;99.90;;;;;;5010063;28;20208;-35
2022/03/18 03:01:59;;;;;;;41.67;27.97;;;7.20;99.90;;;;;;5010271;28;20189;-35
2022/03/18 03:04:25;;;;;;;41.13;28.00;;;7.10;99.90;;;;;;5011466;28;20178;-36
2022/03/18 03:09:35;;;;;;;42.17;26.07;;;7.10;99.90;;;;;;5026311;28;20577;-37
2022/03/18 03:12:01;;;;;;;46.10;28.33;;;7.10;99.90;;;;;;5010260;28;20181;-35
2022/03/18 03:14:27;;;;;;;41.40;28.03;;;7.10;99.90;;;;;;5026678;28;20185;-35
2022/03/18 03:16:53;;;;;;;40.53;26.87;;;7.10;99.90;;;;;;5010208;28;20187;-36
2022/03/18 03:19:19;;;;;;;41.23;27.40;;;7.10;99.90;;;;;;5026183;28;20183;-35
2022/03/18 03:21:45;;;;;;;44.17;28.13;;;7.10;99.90;;;;;;5009818;28;20207;-36
2022/03/18 03:24:11;;;;;;;40.87;27.13;;;7.10;99.90;;;;;;5010651;28;20268;-35
2022/03/18 03:26:36;;;;;;;40.73;27.27;;;7.10;99.90;;;;;;5026544;28;20187;-35
2022/03/18 03:29:03;;;;;;;41.67;27.67;;;7.00;99.90;;;;;;5005327;28;20283;-35
2022/03/18 03:31:29;;;;;;;40.80;27.83;;;7.00;99.90;;;;;;5026169;28;20200;-37
2022/03/18 03:33:54;;;;;;;46.07;28.67;;;7.00;99.90;;;;;;5011264;28;20173;-35
2022/03/18 03:36:20;;;;;;;43.43;28.33;;;7.00;99.90;;;;;;5026448;28;20276;-35
2022/03/18 03:38:46;;;;;;;44.30;28.10;;;7.00;99.90;;;;;;5026318;28;20186;-35
2022/03/18 03:41:12;;;;;;;44.20;27.40;;;7.00;99.90;;;;;;5010145;28;20298;-35
2022/03/18 03:43:38;;;;;;;43.00;27.87;;;7.00;99.90;;;;;;5026539;28;20176;-35
2022/03/18 03:46:04;;;;;;;44.73;27.70;;;6.90;99.90;;;;;;5010210;28;20273;-35
2022/03/18 03:48:30;;;;;;;42.07;27.67;;;6.90;99.90;;;;;;5026201;28;20274;-35
2022/03/18 03:50:56;;;;;;;39.07;26.20;;;6.90;99.90;;;;;;5025854;28;20295;-36
2022/03/18 03:53:22;;;;;;;39.37;26.33;;;6.90;99.90;;;;;;5027264;28;20549;-35
2022/03/18 03:55:48;;;;;;;45.43;27.63;;;6.90;99.90;;;;;;5029681;28;20185;-35
2022/03/18 03:58:14;;;;;;;43.30;27.23;;;6.90;99.90;;;;;;5029556;28;20185;-36
2022/03/18 04:00:40;;;;;;;46.27;27.53;;;6.90;99.90;;;;;;5026508;28;20213;-37
2022/03/18 04:03:06;;;;;;;43.43;28.00;;;6.90;99.90;;;;;;5009801;28;20186;-37
2022/03/18 04:05:35;;;;;;;41.03;27.67;;;6.90;99.90;;;;;;5025957;28;20189;-35
2022/03/18 04:08:02;;;;;;;43.33;27.80;;;6.80;99.90;;;;;;5026218;28;20788;-36
2022/03/18 04:10:28;;;;;;;45.63;28.53;;;6.80;99.90;;;;;;5009504;28;20284;-36
2022/03/18 04:12:54;;;;;;;43.90;28.63;;;6.80;99.90;;;;;;5026107;28;20190;-36
2022/03/18 04:15:21;;;;;;;44.23;27.83;;;6.80;99.90;;;;;;5026019;28;20185;-36
2022/03/18 04:17:48;;;;;;;44.90;27.80;;;6.80;99.90;;;;;;4993223;28;20190;-36
2022/03/18 04:20:17;;;;;;;46.60;28.90;;;6.70;99.90;;;;;;5025646;28;20236;-36
2022/03/18 04:22:43;;;;;;;48.53;29.53;;;6.70;99.90;;;;;;4993215;28;20182;-36
2022/03/18 04:25:10;;;;;;;46.90;30.00;;;6.70;99.90;;;;;;5025312;28;20665;-36
2022/03/18 04:27:37;;;;;;;46.17;28.10;;;6.70;99.90;;;;;;5009714;28;20258;-35
2022/03/18 04:30:04;;;;;;;47.23;28.33;;;6.70;99.90;;;;;;5009169;28;20314;-35
2022/03/18 04:32:30;;;;;;;44.93;29.03;;;6.70;99.90;;;;;;5025696;28;20177;-36
2022/03/18 04:34:56;;;;;;;45.00;28.33;;;6.70;99.90;;;;;;5011395;28;20181;-36
2022/03/18 04:37:22;;;;;;;41.67;27.43;;;6.70;99.90;;;;;;5013055;28;20220;-35
2022/03/18 04:39:48;;;;;;;41.67;27.63;;;6.70;99.90;;;;;;5012647;28;20239;-36
2022/03/18 04:42:14;;;;;;;42.97;27.87;;;6.70;99.90;;;;;;5029439;28;20189;-36
2022/03/18 04:44:40;;;;;;;47.10;28.40;;;6.70;99.90;;;;;;5029636;28;20272;-35
2022/03/18 04:47:06;;;;;;;43.93;27.87;;;6.70;99.90;;;;;;5012831;28;20220;-36
2022/03/18 04:49:31;;;;;;;44.53;27.20;;;6.70;99.90;;;;;;5027724;28;20225;-36
2022/03/18 04:51:57;;;;;;;43.23;26.73;;;6.70;99.90;;;;;;5015214;28;20184;-36
2022/03/18 04:54:23;;;;;;;43.83;28.60;;;6.70;99.90;;;;;;5018014;28;20183;-36
2022/03/18 04:59:34;;;;;;;42.03;27.43;;;6.80;99.90;;;;;;5023308;28;21233;-37
2022/03/18 05:01:59;;;;;;;42.43;27.00;;;6.70;99.90;;;;;;5028474;28;20205;-35
2022/03/18 05:04:26;;;;;;;44.07;26.83;;;6.70;99.90;;;;;;5007894;28;20187;-36
2022/03/18 05:06:52;;;;;;;38.23;26.03;;;6.70;99.90;;;;;;5001655;28;20179;-35
2022/03/18 05:09:20;;;;;;;39.90;26.60;;;6.80;99.90;;;;;;5019333;28;20211;-35
2022/03/18 05:11:46;;;;;;;40.67;25.10;;;6.70;99.90;;;;;;5018620;28;20180;-35
2022/03/18 05:14:12;;;;;;;38.77;26.30;;;6.70;99.90;;;;;;5019109;28;20184;-35
2022/03/18 05:16:38;;;;;;;40.93;27.37;;;6.70;99.90;;;;;;5017420;28;20174;-36
2022/03/18 05:19:03;;;;;;;39.80;26.20;;;6.80;99.90;;;;;;5018952;28;20253;-35
2022/03/18 05:21:29;;;;;;;39.47;25.47;;;6.80;99.90;;;;;;4994251;28;20193;-36
2022/03/18 05:23:55;;;;;;;39.73;25.67;;;6.80;99.90;;;;;;5011007;28;20184;-36
2022/03/18 05:26:21;;;;;;;40.37;26.37;;;6.70;99.90;;;;;;5009253;28;20575;-37
2022/03/18 05:28:47;;;;;;;42.10;26.80;;;6.80;99.90;;;;;;5014542;28;20252;-36
2022/03/18 05:31:14;;;;;;;46.13;27.20;;;6.70;99.90;;;;;;5011369;28;20222;-35
2022/03/18 05:33:39;;;;;;;41.97;26.37;;;6.70;99.90;;;;;;5012162;28;20183;-36
2022/03/18 05:36:06;;;;;;;38.23;25.40;;;6.70;99.90;;;;;;5028769;28;20187;-36
2022/03/18 05:38:32;;;;;;;40.60;27.10;;;6.80;99.90;;;;;;5009221;28;20655;-36
2022/03/18 05:40:58;;;;;;;39.27;26.53;;;6.80;99.90;;;;;;5003608;28;20208;-35
2022/03/18 05:43:23;;;;;;;37.03;25.37;;;6.80;99.90;;;;;;5013026;28;20548;-36
2022/03/18 05:45:49;;;;;;;39.93;26.27;;;6.90;99.90;;;;;;5028161;28;20185;-35
2022/03/18 05:48:15;;;;;;;39.43;25.90;;;6.80;99.90;;;;;;5027821;28;20193;-35
2022/03/18 05:50:42;;;;;;;41.10;26.80;;;6.80;99.90;;;;;;5027990;28;20216;-35
2022/03/18 05:53:07;;;;;;;40.60;25.43;;;6.80;99.90;;;;;;5020585;28;20181;-35
2022/03/18 05:58:21;;;;;;;40.03;26.40;;;6.80;99.90;;;;;;5005878;28;20178;-36
2022/03/18 06:00:47;;;;;;;38.67;25.27;;;6.80;99.90;;;;;;5011190;28;20311;-37
2022/03/18 06:03:13;;;;;;;38.97;25.00;;;6.90;99.90;;;;;;5029615;28;20183;-36
2022/03/18 06:05:43;;;;;;;37.70;26.43;;;6.80;99.90;;;;;;5031942;28;20248;-37
2022/03/18 06:13:38;;;;;;;40.83;25.10;;;6.80;99.90;;;;;;5012802;28;20178;-35
2022/03/18 06:16:05;;;;;;;43.63;26.03;;;6.80;99.90;;;;;;5027737;28;20242;-36
2022/03/18 06:18:31;;;;;;;40.80;25.57;;;6.80;99.90;;;;;;5027892;28;20193;-36
2022/03/18 06:20:56;;;;;;;40.87;26.07;;;6.80;99.90;;;;;;5010762;28;20195;-36
2022/03/18 06:23:22;;;;;;;37.00;25.77;;;6.70;99.90;;;;;;5027536;28;20179;-36
2022/03/18 06:25:48;;;;;;;43.80;26.73;;;6.70;99.90;;;;;;5027551;28;20224;-36
2022/03/18 06:28:14;;;;;;;41.93;27.30;;;6.80;99.90;;;;;;5027592;28;20184;-35
2022/03/18 06:30:40;;;;;;;40.60;25.93;;;6.80;99.90;;;;;;5027001;28;20702;-35
2022/03/18 06:33:06;;;;;;;41.77;26.93;;;6.70;99.90;;;;;;5011239;28;20221;-35
2022/03/18 06:35:33;;;;;;;42.87;27.23;;;6.80;99.90;;;;;;5010830;28;20179;-36
2022/03/18 06:37:59;;;;;;;41.17;26.43;;;6.80;99.90;;;;;;5027211;28;20182;-35
2022/03/18 06:40:25;;;;;;;41.40;27.23;;;6.80;99.90;;;;;;5027067;28;20682;-35
2022/03/18 06:42:51;;;;;;;42.33;26.47;;;6.80;99.90;;;;;;5027371;28;20184;-35
2022/03/18 06:45:17;;;;;;;42.70;26.70;;;6.80;99.90;;;;;;5026926;28;20268;-36
2022/03/18 06:47:43;;;;;;;46.03;27.87;;;6.80;99.90;;;;;;5010854;28;20190;-35
2022/03/18 06:50:09;;;;;;;40.07;26.93;;;6.90;99.90;;;;;;5011660;28;20216;-35
2022/03/18 06:52:35;;;;;;;42.37;26.77;;;6.90;99.90;;;;;;5010611;28;20190;-36
2022/03/18 06:55:01;;;;;;;43.17;27.80;;;6.90;99.90;;;;;;5027097;28;20630;-35
2022/03/18 06:57:27;;;;;;;39.07;25.47;;;6.90;99.90;;;;;;5026319;28;20173;-36
2022/03/18 06:59:53;;;;;;;38.53;25.43;;;6.90;99.90;;;;;;5026727;28;20230;-36
2022/03/18 07:02:19;;;;;;;41.80;27.43;;;7.00;99.90;;;;;;5026492;28;20223;-35
2022/03/18 07:04:45;;;;;;;44.47;28.30;;;7.00;99.90;;;;;;4993968;28;20213;-35
2022/03/18 07:07:11;;;;;;;40.33;26.97;;;7.10;99.90;;;;;;4994179;28;20190;-35
2022/03/18 07:09:37;;;;;;;43.20;26.93;;;7.10;99.90;;;;;;4993793;28;20220;-35
2022/03/18 07:12:03;;;;;;;43.50;27.77;;;7.10;99.90;;;;;;5026820;28;20217;-36
2022/03/18 07:14:29;;;;;;;40.87;26.33;;;7.10;99.90;;;;;;5026493;28;20233;-36
2022/03/18 07:19:39;;;;;;;42.97;26.87;;;7.10;99.90;;;;;;5011161;28;20194;-36
2022/03/18 07:22:06;;;;;;;41.83;26.57;;;7.20;99.90;;;;;;5026635;28;20288;-36
2022/03/18 07:24:32;;;;;;;42.00;28.13;;;7.20;99.90;;;;;;5026734;28;20182;-36
2022/03/18 07:26:58;;;;;;;41.77;26.80;;;7.20;99.90;;;;;;5009967;28;20195;-36
2022/03/18 07:29:24;;;;;;;39.53;27.17;;;7.20;99.90;;;;;;5026311;28;20202;-36
2022/03/18 07:31:54;;;;;;;41.17;27.80;;;7.30;99.90;;;;;;5028159;28;20201;-36
2022/03/18 07:34:21;;;;;;;44.77;28.53;;;7.30;99.90;;;;;;5028472;28;20162;-35
2022/03/18 07:36:50;;;;;;;42.37;27.83;;;7.30;99.90;;;;;;5012037;28;20176;-35
2022/03/18 07:39:16;;;;;;;41.97;27.97;;;7.40;99.90;;;;;;5028119;28;20182;-37
2022/03/18 07:41:42;;;;;;;42.03;27.77;;;7.40;99.90;;;;;;5009816;28;20192;-36
2022/03/18 07:44:11;;;;;;;42.40;27.97;;;7.50;99.90;;;;;;5026550;28;20179;-37
2022/03/18 07:46:37;;;;;;;40.10;26.57;;;7.50;99.90;;;;;;5026483;28;20597;-35
2022/03/18 07:49:03;;;;;;;40.77;27.63;;;7.50;99.90;;;;;;5009908;28;20225;-35
2022/03/18 07:51:32;;;;;;;42.57;27.80;;;7.50;99.90;;;;;;5026091;28;20230;-36
2022/03/18 07:53:58;;;;;;;39.70;27.20;;;7.60;99.90;;;;;;4993332;28;20180;-36
2022/03/18 07:56:24;;;;;;;42.40;28.50;;;7.60;99.90;;;;;;5026307;28;20183;-36
2022/03/18 07:58:50;;;;;;;41.57;27.57;;;7.70;99.90;;;;;;5025814;28;20189;-36
2022/03/18 08:01:16;;;;;;;42.13;27.80;;;7.70;99.90;;;;;;5026291;28;20218;-35
2022/03/18 08:03:42;;;;;;;42.27;28.07;;;7.80;99.90;;;;;;5026034;28;20670;-35
2022/03/18 08:06:08;;;;;;;44.67;29.10;;;7.80;99.90;;;;;;5026388;28;20189;-36
2022/03/18 08:08:33;;;;;;;41.47;28.67;;;7.80;99.90;;;;;;5028066;28;20209;-35
2022/03/18 08:11:00;;;;;;;41.97;28.73;;;7.80;99.90;;;;;;5014726;28;20249;-36
2022/03/18 08:13:26;;;;;;;40.83;28.70;;;7.80;99.90;;;;;;4998997;28;20232;-37
2022/03/18 08:15:53;;;;;;;44.20;29.17;;;7.90;99.90;;;;;;5030595;28;20186;-36
2022/03/18 08:18:19;;;;;;;45.73;29.23;;;7.90;99.90;;;;;;5030104;28;20187;-36
2022/03/18 08:20:50;;;;;;;40.53;27.97;;;7.90;99.90;;;;;;5013307;28;20232;-36
2022/03/18 08:23:16;;;;;;;44.77;27.97;;;7.90;99.90;;;;;;5013249;28;20179;-35
2022/03/18 08:25:42;;;;;;;43.13;28.83;;;8.00;99.90;;;;;;5029895;28;20286;-38
2022/03/18 08:28:08;;;;;;;42.23;28.57;;;8.00;99.90;;;;;;4997054;28;20188;-36
2022/03/18 08:30:35;;;;;;;42.93;30.03;;;8.00;99.90;;;;;;5013039;28;20218;-36
2022/03/18 08:33:01;;;;;;;44.47;30.27;;;8.10;99.90;;;;;;5029802;28;20217;-35
2022/03/18 08:35:27;;;;;;;46.13;30.37;;;8.10;99.90;;;;;;5029584;28;20182;-36
2022/03/18 08:37:56;;;;;;;45.70;30.53;;;8.20;99.90;;;;;;5029827;28;20182;-36
2022/03/18 08:40:33;;;;;;;41.50;28.63;;;8.10;99.90;;;;;;5029050;28;20210;-36
2022/03/18 08:43:01;;;;;;;41.60;28.83;;;8.10;99.90;;;;;;5012906;28;20187;-36
2022/03/18 08:45:28;;;;;;;44.30;29.50;;;8.10;99.90;;;;;;5028065;28;20184;-37
2022/03/18 08:47:54;;;;;;;40.57;27.63;;;8.10;99.90;;;;;;5019524;28;20195;-35
2022/03/18 08:50:21;;;;;;;46.30;30.20;;;8.10;99.90;;;;;;5017363;28;20207;-36
2022/03/18 08:52:49;;;;;;;42.43;29.33;;;8.10;99.90;;;;;;5025003;28;20227;-36
2022/03/18 08:55:16;;;;;;;41.37;29.23;;;8.10;99.90;;;;;;5028937;28;20190;-36
2022/03/18 08:57:42;;;;;;;46.77;30.97;;;8.10;99.90;;;;;;5029071;28;20286;-36
2022/03/18 09:00:10;;;;;;;46.47;31.20;;;8.10;99.90;;;;;;5028885;28;20230;-36
2022/03/18 09:02:38;;;;;;;43.87;29.63;;;8.20;99.90;;;;;;5029390;28;20175;-35
2022/03/18 09:05:05;;;;;;;43.83;30.80;;;8.30;99.90;;;;;;5012446;28;20198;-35
2022/03/18 09:07:32;;;;;;;43.70;31.17;;;8.40;99.90;;;;;;5012458;28;20663;-35
2022/03/18 09:09:58;;;;;;;45.63;31.47;;;8.50;99.90;;;;;;5028686;28;20214;-35
2022/03/18 09:12:24;;;;;;;45.97;29.90;;;8.50;99.90;;;;;;5012560;28;20183;-35
2022/03/18 09:14:51;;;;;;;43.90;29.47;;;8.50;99.90;;;;;;5029058;28;20183;-36
2022/03/18 09:17:16;;;;;;;42.20;29.90;;;8.60;99.90;;;;;;5028914;28;20179;-36
2022/03/18 09:19:42;;;;;;;46.43;30.00;;;8.70;99.90;;;;;;5012647;28;20194;-36
2022/03/18 09:22:09;;;;;;;48.13;33.13;;;8.80;99.90;;;;;;5028712;28;20615;-37
2022/03/18 09:24:36;;;;;;;46.13;31.50;;;8.90;99.90;;;;;;5013480;28;20190;-36
2022/03/18 09:27:03;;;;;;;41.23;30.17;;;9.00;99.90;;;;;;5028820;28;20187;-35
2022/03/18 09:29:29;;;;;;;44.80;30.87;;;9.00;99.90;;;;;;5028078;28;20223;-36
2022/03/18 09:31:55;;;;;;;42.83;30.90;;;9.00;99.90;;;;;;5028620;28;20186;-37
2022/03/18 09:34:24;;;;;;;45.33;30.33;;;8.90;99.90;;;;;;5011911;28;20171;-38
2022/03/18 09:36:54;;;;;;;45.83;30.87;;;8.90;99.90;;;;;;5028520;28;20188;-36
2022/03/18 09:39:22;;;;;;;47.43;33.17;;;8.90;99.90;;;;;;5012997;28;20274;-36
2022/03/18 09:41:52;;;;;;;45.53;31.00;;;8.90;99.90;;;;;;4986833;28;20183;-36
2022/03/18 09:44:19;;;;;;;45.30;32.07;;;8.90;99.90;;;;;;5020976;28;20183;-35
2022/03/18 09:46:47;;;;;;;46.00;30.77;;;8.80;99.90;;;;;;5017292;28;20175;-35
2022/03/18 09:49:14;;;;;;;47.27;32.43;;;8.80;99.90;;;;;;5017124;28;20187;-36
2022/03/18 09:51:42;;;;;;;47.57;31.50;;;8.80;99.90;;;;;;5019362;28;20175;-36
2022/03/18 09:54:13;;;;;;;66.93;43.57;;;8.80;99.90;;;;;;5017873;28;20172;-36
2022/03/18 09:56:42;;;;;;;47.00;32.20;;;8.80;99.90;;;;;;5020693;28;20211;-36
2022/03/18 09:59:10;;;;;;;46.50;33.37;;;8.90;99.90;;;;;;5020338;28;20278;-38
2022/03/18 10:01:36;;;;;;;42.63;30.50;;;9.00;99.90;;;;;;5018504;28;20183;-36
2022/03/18 10:04:20;;;;;;;44.00;31.13;;;9.10;99.90;;;;;;5015921;28;20266;-36
2022/03/18 10:06:46;;;;;;;41.70;29.17;;;9.20;99.90;;;;;;5018380;28;20176;-36
2022/03/18 10:09:16;;;;;;;44.13;30.67;;;9.10;99.90;;;;;;5016223;28;20179;-36
2022/03/18 10:11:46;;;;;;;44.33;30.10;;;9.10;99.90;;;;;;5002281;28;20176;-36
2022/03/18 10:14:24;;;;;;;45.77;31.50;;;9.20;99.90;;;;;;5019118;28;20274;-39
2022/03/18 10:16:51;;;;;;;45.60;30.53;;;9.20;99.90;;;;;;5004907;28;20238;-36
2022/03/18 10:19:24;;;;;;;40.80;30.37;;;9.20;99.90;;;;;;5000381;28;20187;-37
2022/03/18 10:22:02;;;;;;;42.33;29.27;;;9.30;99.90;;;;;;5019311;28;20184;-37
2022/03/18 10:24:34;;;;;;;42.83;30.27;;;9.40;99.90;;;;;;5027404;28;20277;-38
2022/03/18 10:27:11;;;;;;;40.43;30.10;;;9.50;99.90;;;;;;5027316;28;20187;-36
2022/03/18 10:29:43;;;;;;;38.40;28.43;;;9.50;99.90;;;;;;5025804;28;20222;-36
2022/03/18 10:32:11;;;;;;;40.37;29.57;;;9.50;99.90;;;;;;5023743;28;20218;-36
2022/03/18 10:37:25;;;;;;;42.50;30.13;;;9.80;99.90;;;;;;5017858;28;20181;-36
2022/03/18 10:40:00;;;;;;;37.93;28.20;;;9.80;99.90;;;;;;5002575;28;20204;-40
2022/03/18 10:42:27;;;;;;;38.33;28.13;;;9.90;99.90;;;;;;5017627;28;20186;-37
2022/03/18 10:44:59;;;;;;;36.93;26.30;;;10.00;99.90;;;;;;5017028;28;20175;-37
2022/03/18 10:47:36;;;;;;;38.80;27.50;;;10.00;99.90;;;;;;5017770;28;20187;-37
2022/03/18 10:50:13;;;;;;;38.40;28.00;;;9.90;99.90;;;;;;5016670;28;20256;-36
2022/03/18 10:53:00;;;;;;;38.20;26.67;;;9.90;99.90;;;;;;5018936;28;20176;-38
2022/03/18 10:55:40;;;;;;;33.30;24.77;;;10.00;99.90;;;;;;5022744;28;20207;-40
2022/03/18 10:58:15;;;;;;;35.60;24.70;;;10.00;99.90;;;;;;5012888;28;20228;-38
2022/03/18 11:00:44;;;;;;;32.83;24.80;;;9.90;99.90;;;;;;5024218;28;20286;-38
2022/03/18 11:03:11;;;;;;;34.80;25.70;;;10.00;99.90;;;;;;5015055;28;20556;-37
2022/03/18 11:05:43;;;;;;;34.97;24.33;;;10.00;99.90;;;;;;5016841;28;20218;-36
2022/03/18 11:08:14;;;;;;;33.83;25.17;;;10.10;99.90;;;;;;5022998;28;20266;-35
2022/03/18 11:14:06;;;;;;;33.60;24.17;;;10.20;99.90;;;;;;5016267;28;20207;-36
2022/03/18 11:16:36;;;;;;;32.27;23.33;;;10.50;99.90;;;;;;5023030;28;20242;-36
2022/03/18 11:19:06;;;;;;;34.23;25.03;;;10.70;99.90;;;;;;5000812;28;20175;-36
2022/03/18 11:21:41;;;;;;;33.43;25.20;;;10.80;99.90;;;;;;5014684;28;20201;-36
2022/03/18 11:24:13;;;;;;;32.40;24.33;;;11.00;99.90;;;;;;5001175;28;20182;-37
2022/03/18 11:26:46;;;;;;;30.83;23.00;;;11.00;99.90;;;;;;5016827;28;20177;-36
2022/03/18 11:29:14;;;;;;;31.97;23.07;;;11.00;99.90;;;;;;5018186;28;20186;-37
2022/03/18 11:31:42;;;;;;;33.97;24.57;;;11.20;99.90;;;;;;5015581;28;20177;-37
2022/03/18 11:34:14;;;;;;;29.80;23.27;;;11.40;99.90;;;;;;5017128;28;20226;-36
2022/03/18 11:37:09;;;;;;;33.80;24.50;;;11.60;99.90;;;;;;5016657;28;20230;-36
2022/03/18 11:39:35;;;;;;;31.30;24.33;;;11.40;99.90;;;;;;4997243;28;20208;-36
2022/03/18 11:42:09;;;;;;;30.43;22.57;;;11.30;99.90;;;;;;5015210;28;20212;-36
2022/03/18 11:44:56;;;;;;;29.60;22.07;;;11.50;99.90;;;;;;5021277;28;20188;-37
2022/03/18 11:47:30;;;;;;;30.80;22.80;;;11.50;99.90;;;;;;5018359;28;20197;-38
2022/03/18 11:49:58;;;;;;;29.50;22.10;;;11.40;99.90;;;;;;5017457;28;20229;-36
2022/03/18 11:52:24;;;;;;;32.73;23.87;;;11.60;99.90;;;;;;5014219;28;20178;-37
2022/03/18 11:54:52;;;;;;;30.67;22.50;;;11.60;99.90;;;;;;5001185;28;20190;-36
2022/03/18 11:57:29;;;;;;;28.97;21.60;;;11.60;99.90;;;;;;4999224;28;20181;-37
2022/03/18 11:59:57;;;;;;;31.40;23.20;;;11.50;99.90;;;;;;5001394;28;20218;-36
2022/03/18 12:02:32;;;;;;;28.40;21.53;;;11.50;99.90;;;;;;4998296;28;20297;-38
2022/03/18 12:04:59;;;;;;;30.53;23.17;;;11.60;99.90;;;;;;5015565;28;20184;-36
2022/03/18 12:07:30;;;;;;;32.10;23.63;;;11.90;99.90;;;;;;5016914;28;20192;-37
2022/03/18 12:10:04;;;;;;;31.03;22.50;;;12.20;99.90;;;;;;5016907;28;20212;-38
2022/03/18 12:12:33;;;;;;;29.87;23.30;;;12.40;99.90;;;;;;5016638;28;20194;-40
2022/03/18 12:15:05;;;;;;;29.07;22.10;;;12.20;99.90;;;;;;5003719;28;20175;-36
2022/03/18 12:17:39;;;;;;;28.07;22.20;;;12.30;99.90;;;;;;5024559;28;20190;-36
2022/03/18 12:20:08;;;;;;;29.17;21.07;;;12.60;99.90;;;;;;5017354;28;20210;-38
2022/03/18 12:22:38;;;;;;;26.73;20.90;;;12.90;99.90;;;;;;4989650;28;20275;-36
2022/03/18 12:25:08;;;;;;;25.63;20.83;;;13.20;99.90;;;;;;4993717;28;20240;-40
2022/03/18 12:27:36;;;;;;;25.60;20.73;;;13.40;99.90;;;;;;4989912;28;20207;-36
2022/03/18 12:30:10;;;;;;;26.03;20.37;;;13.50;99.90;;;;;;5021500;28;20310;-40
2022/03/18 12:32:47;;;;;;;27.83;21.37;;;13.70;99.90;;;;;;5025912;28;20634;-37
2022/03/18 12:35:13;;;;;;;27.67;22.03;;;13.70;99.90;;;;;;5025750;28;20203;-37
2022/03/18 12:37:41;;;;;;;27.47;22.03;;;13.90;99.90;;;;;;5009368;28;20233;-37
2022/03/18 12:40:08;;;;;;;25.67;20.37;;;13.90;99.90;;;;;;5009177;28;20572;-36
2022/03/18 12:42:54;;;;;;;27.90;22.13;;;14.00;99.90;;;;;;5025767;28;20171;-38
2022/03/18 12:45:38;;;;;;;27.80;20.80;;;14.20;99.90;;;;;;5009547;28;20179;-37
2022/03/18 12:48:10;;;;;;;24.33;20.47;;;14.40;99.90;;;;;;5024756;28;20234;-39
2022/03/18 12:50:43;;;;;;;26.67;21.27;;;14.50;99.90;;;;;;5018651;28;20214;-37
2022/03/18 12:53:11;;;;;;;25.63;20.57;;;14.70;99.90;;;;;;5005587;28;20183;-38
2022/03/18 12:55:37;;;;;;;27.57;21.30;;;14.80;99.90;;;;;;5021998;28;20177;-36
2022/03/18 12:58:15;;;;;;;23.80;19.93;;;14.70;99.90;;;;;;5018438;28;20183;-38
2022/03/18 13:00:51;;;;;;;27.37;20.87;;;14.90;99.90;;;;;;5003341;28;20706;-38
2022/03/18 13:03:20;;;;;;;25.57;20.13;;;14.90;99.90;;;;;;5003336;28;20177;-38
2022/03/18 13:05:50;;;;;;;27.37;20.63;;;14.30;99.90;;;;;;5018944;28;20270;-37